Time;durP1;ratioP1;P1;durP2;ratioP2;P2;SDS_P1;SDS_P2;PMS_P1;PMS_P2;Temp;Humidity;BMP_temperature;BMP_pressure;BME280_temperature;BME280_humidity;BME280_pressure;Samples;Min_cycle;Max_cycle;Signal;HPM_P1;HPM_P2
2022/01/31 00:00:48;;;;;;;13.00;8.98;;;;;;;;;;5004215;28;20014;-55
2022/01/31 00:03:13;;;;;;;16.30;10.13;;;;;;;;;;5002925;28;20022;-55
2022/01/31 00:05:38;;;;;;;18.20;11.32;;;;;;;;;;5004139;28;20050;-56
2022/01/31 00:08:04;;;;;;;17.17;10.93;;;;;;;;;;5003775;28;20086;-55
2022/01/31 00:10:31;;;;;;;20.10;11.05;;;;;;;;;;5003913;28;20026;-57
2022/01/31 00:13:03;;;;;;;18.35;12.02;;;;;;;;;;5003884;28;20054;-55
2022/01/31 00:15:28;;;;;;;20.92;12.18;;;;;;;;;;5003916;28;20072;-55
2022/01/31 00:17:54;;;;;;;21.70;11.88;;;;;;;;;;5001910;28;20034;-55
2022/01/31 00:20:20;;;;;;;16.67;10.77;;;;;;;;;;5002314;28;20026;-56
2022/01/31 00:22:45;;;;;;;17.98;11.70;;;;;;;;;;5001423;28;20026;-56
2022/01/31 00:25:11;;;;;;;18.67;11.60;;;;;;;;;;5002896;28;20022;-56
2022/01/31 00:27:36;;;;;;;18.75;12.35;;;;;;;;;;5001134;28;20018;-57
2022/01/31 00:30:02;;;;;;;18.77;12.38;;;;;;;;;;5003701;28;20056;-56
2022/01/31 00:32:29;;;;;;;16.88;12.82;;;;;;;;;;5003665;28;20094;-56
2022/01/31 00:34:56;;;;;;;18.05;11.32;;;;;;;;;;5002838;28;20207;-58
2022/01/31 00:37:21;;;;;;;19.60;12.63;;;;;;;;;;4999428;28;20053;-57
2022/01/31 00:39:47;;;;;;;23.40;12.40;;;;;;;;;;5003318;28;20230;-57
2022/01/31 00:42:12;;;;;;;17.58;12.02;;;;;;;;;;5003644;28;20033;-56
2022/01/31 00:44:44;;;;;;;19.48;12.63;;;;;;;;;;5003460;28;20045;-57
2022/01/31 00:47:18;;;;;;;20.23;12.25;;;;;;;;;;5003792;28;20030;-56
2022/01/31 00:49:50;;;;;;;19.10;12.63;;;;;;;;;;5003491;28;20326;-58
2022/01/31 00:52:16;;;;;;;22.42;13.32;;;;;;;;;;5002657;28;20306;-56
2022/01/31 00:54:41;;;;;;;19.67;13.38;;;;;;;;;;5003276;28;20034;-57
2022/01/31 00:57:06;;;;;;;17.13;12.57;;;;;;;;;;5003364;28;20362;-58
2022/01/31 00:59:32;;;;;;;18.48;11.95;;;;;;;;;;5002332;28;20062;-58
2022/01/31 01:01:57;;;;;;;17.73;11.80;;;;;;;;;;4991960;28;20093;-57
2022/01/31 01:04:23;;;;;;;21.77;14.20;;;;;;;;;;5002346;28;20026;-57
2022/01/31 01:06:48;;;;;;;18.77;12.13;;;;;;;;;;5003380;28;20049;-57
2022/01/31 01:09:13;;;;;;;17.00;11.20;;;;;;;;;;5003143;28;20061;-57
2022/01/31 01:11:39;;;;;;;18.55;12.40;;;;;;;;;;5003115;28;20072;-57
2022/01/31 01:14:04;;;;;;;20.13;13.23;;;;;;;;;;5002323;28;20025;-57
2022/01/31 01:16:30;;;;;;;21.15;12.05;;;;;;;;;;5003317;28;20193;-57
2022/01/31 01:18:55;;;;;;;18.23;12.45;;;;;;;;;;5001895;28;20278;-57
2022/01/31 01:21:21;;;;;;;17.65;12.65;;;;;;;;;;5002237;28;20025;-58
2022/01/31 01:23:46;;;;;;;21.27;13.70;;;;;;;;;;5003013;28;20030;-57
2022/01/31 01:26:12;;;;;;;22.67;14.40;;;;;;;;;;5003151;28;20262;-57
2022/01/31 01:28:37;;;;;;;22.10;13.05;;;;;;;;;;5003183;28;20053;-57
2022/01/31 01:31:03;;;;;;;23.25;14.05;;;;;;;;;;5001780;28;20025;-57
2022/01/31 01:33:28;;;;;;;26.35;15.45;;;;;;;;;;4997723;28;20034;-57
2022/01/31 01:35:55;;;;;;;23.35;13.85;;;;;;;;;;5003053;28;20018;-57
2022/01/31 01:38:23;;;;;;;24.63;15.23;;;;;;;;;;5001804;28;20022;-57
2022/01/31 01:40:48;;;;;;;23.02;15.15;;;;;;;;;;4993195;28;20018;-57
2022/01/31 01:43:15;;;;;;;21.40;14.80;;;;;;;;;;5001928;28;20098;-57
2022/01/31 01:45:41;;;;;;;23.38;14.65;;;;;;;;;;5001796;28;20014;-57
2022/01/31 01:48:07;;;;;;;22.17;14.13;;;;;;;;;;5034562;28;20056;-57
2022/01/31 01:50:33;;;;;;;22.20;14.63;;;;;;;;;;5001842;28;20054;-57
2022/01/31 01:52:59;;;;;;;25.85;16.27;;;;;;;;;;4989531;28;20027;-56
2022/01/31 01:55:25;;;;;;;24.73;14.35;;;;;;;;;;5001764;28;20045;-56
2022/01/31 01:57:50;;;;;;;22.77;14.98;;;;;;;;;;5005244;28;20022;-57
2022/01/31 02:00:19;;;;;;;23.02;15.10;;;;;;;;;;5005420;28;20026;-57
2022/01/31 02:02:45;;;;;;;23.80;14.30;;;;;;;;;;5006095;28;20030;-58
2022/01/31 02:05:11;;;;;;;22.48;13.57;;;;;;;;;;5005631;28;20212;-58
2022/01/31 02:07:37;;;;;;;22.17;14.13;;;;;;;;;;5002170;28;20023;-58
2022/01/31 02:10:04;;;;;;;22.55;13.80;;;;;;;;;;5004709;28;20239;-59
2022/01/31 02:12:40;;;;;;;24.08;15.60;;;;;;;;;;5004109;28;20080;-57
2022/01/31 02:15:07;;;;;;;23.08;13.40;;;;;;;;;;5002302;28;20077;-57
2022/01/31 02:17:32;;;;;;;21.27;11.95;;;;;;;;;;5005395;28;20030;-61
2022/01/31 02:19:58;;;;;;;24.48;15.45;;;;;;;;;;5005528;28;20270;-58
2022/01/31 02:22:23;;;;;;;22.17;13.77;;;;;;;;;;4995496;28;20032;-58
2022/01/31 02:24:48;;;;;;;21.10;13.77;;;;;;;;;;5011944;28;20330;-58
2022/01/31 02:27:14;;;;;;;18.77;9.13;;;;;;;;;;5004744;28;20030;-58
2022/01/31 02:29:39;;;;;;;24.50;17.10;;;;;;;;;;5005736;28;20053;-57
2022/01/31 02:32:04;;;;;;;23.80;14.48;;;;;;;;;;5006391;28;20014;-58
2022/01/31 02:34:30;;;;;;;24.23;14.95;;;;;;;;;;5007935;28;20022;-58
2022/01/31 02:36:55;;;;;;;23.00;15.02;;;;;;;;;;5004290;28;20023;-58
2022/01/31 02:39:21;;;;;;;28.90;15.82;;;;;;;;;;5004949;28;20097;-58
2022/01/31 02:41:46;;;;;;;31.33;16.77;;;;;;;;;;5005460;28;20022;-58
2022/01/31 02:44:15;;;;;;;26.30;15.27;;;;;;;;;;5005861;28;20303;-57
2022/01/31 02:46:49;;;;;;;26.25;14.98;;;;;;;;;;5005758;28;20314;-57
2022/01/31 02:49:17;;;;;;;27.90;15.95;;;;;;;;;;5003590;28;20061;-56
2022/01/31 02:51:47;;;;;;;20.70;13.38;;;;;;;;;;5005413;28;20046;-56
2022/01/31 02:54:13;;;;;;;28.45;15.98;;;;;;;;;;5005648;28;20014;-58
2022/01/31 02:56:40;;;;;;;24.40;16.08;;;;;;;;;;5005562;28;20041;-58
2022/01/31 02:59:06;;;;;;;23.85;15.38;;;;;;;;;;5004395;28;20025;-59
2022/01/31 03:01:33;;;;;;;24.77;16.02;;;;;;;;;;5005252;28;20042;-59
2022/01/31 03:03:59;;;;;;;28.70;15.75;;;;;;;;;;5003847;28;20060;-58
2022/01/31 03:06:24;;;;;;;25.75;15.98;;;;;;;;;;5005073;28;20053;-58
2022/01/31 03:08:49;;;;;;;31.80;16.33;;;;;;;;;;4999220;28;20039;-58
2022/01/31 03:11:15;;;;;;;23.13;15.07;;;;;;;;;;5005435;28;20026;-59
2022/01/31 03:13:40;;;;;;;25.13;15.95;;;;;;;;;;5005215;28;20045;-58
2022/01/31 03:16:06;;;;;;;25.65;15.95;;;;;;;;;;5004974;28;20018;-58
2022/01/31 03:18:31;;;;;;;21.98;12.82;;;;;;;;;;5003906;28;20322;-58
2022/01/31 03:20:57;;;;;;;27.25;16.35;;;;;;;;;;5005032;28;20061;-59
2022/01/31 03:23:22;;;;;;;24.83;15.45;;;;;;;;;;5004053;28;20022;-58
2022/01/31 03:25:48;;;;;;;28.35;15.82;;;;;;;;;;5003618;28;20217;-57
2022/01/31 03:28:13;;;;;;;24.52;15.18;;;;;;;;;;5003720;28;20065;-59
2022/01/31 03:30:38;;;;;;;22.98;14.23;;;;;;;;;;5004153;28;20025;-58
2022/01/31 03:33:04;;;;;;;26.25;16.67;;;;;;;;;;5003826;28;20026;-57
2022/01/31 03:35:29;;;;;;;27.30;16.05;;;;;;;;;;4992649;28;20081;-58
2022/01/31 03:37:54;;;;;;;25.98;15.88;;;;;;;;;;5004663;28;20029;-58
2022/01/31 03:40:20;;;;;;;26.50;15.07;;;;;;;;;;5004396;28;20030;-58
2022/01/31 03:42:45;;;;;;;26.95;15.57;;;;;;;;;;5004609;28;20093;-58
2022/01/31 03:45:11;;;;;;;18.10;10.90;;;;;;;;;;5004322;28;20026;-58
2022/01/31 03:47:43;;;;;;;28.33;17.67;;;;;;;;;;5004482;28;20015;-58
2022/01/31 03:50:09;;;;;;;26.75;16.20;;;;;;;;;;5004475;28;20105;-57
2022/01/31 03:52:35;;;;;;;27.38;16.40;;;;;;;;;;5003108;28;20374;-58
2022/01/31 03:55:00;;;;;;;30.63;17.00;;;;;;;;;;5004602;28;20122;-57
2022/01/31 03:57:25;;;;;;;31.92;17.02;;;;;;;;;;5004255;28;20018;-58
2022/01/31 03:59:51;;;;;;;29.80;16.85;;;;;;;;;;5004131;28;20096;-58
2022/01/31 04:02:16;;;;;;;28.90;16.67;;;;;;;;;;5003929;28;20323;-58
2022/01/31 04:04:41;;;;;;;24.65;16.27;;;;;;;;;;5003783;28;20022;-58
2022/01/31 04:07:07;;;;;;;30.70;16.98;;;;;;;;;;5004093;28;20055;-58
2022/01/31 04:09:32;;;;;;;29.92;16.20;;;;;;;;;;5003747;28;20211;-58
2022/01/31 04:11:58;;;;;;;28.02;16.67;;;;;;;;;;5003832;28;20073;-58
2022/01/31 04:14:26;;;;;;;23.17;13.85;;;;;;;;;;5004063;28;20049;-57
2022/01/31 04:16:53;;;;;;;29.10;16.48;;;;;;;;;;5003653;28;20036;-56
2022/01/31 04:19:19;;;;;;;25.83;16.95;;;;;;;;;;5002098;28;20030;-57
2022/01/31 04:21:44;;;;;;;28.33;15.15;;;;;;;;;;5003330;28;20025;-57
2022/01/31 04:24:10;;;;;;;25.73;16.13;;;;;;;;;;5003975;28;20129;-57
2022/01/31 04:26:44;;;;;;;25.60;16.00;;;;;;;;;;5003631;28;20093;-57
2022/01/31 04:29:14;;;;;;;27.70;17.20;;;;;;;;;;5003867;28;20065;-57
2022/01/31 04:31:44;;;;;;;23.27;15.95;;;;;;;;;;5002274;28;20073;-57
2022/01/31 04:34:10;;;;;;;22.85;15.77;;;;;;;;;;5002586;28;20036;-57
2022/01/31 04:36:35;;;;;;;25.33;16.63;;;;;;;;;;5003720;28;20027;-57
2022/01/31 04:39:01;;;;;;;26.35;15.88;;;;;;;;;;5003639;28;20262;-57
2022/01/31 04:41:26;;;;;;;26.63;16.50;;;;;;;;;;5003837;28;20034;-58
2022/01/31 04:43:54;;;;;;;24.08;16.08;;;;;;;;;;5003408;28;20100;-57
2022/01/31 04:46:20;;;;;;;25.63;16.52;;;;;;;;;;5003682;28;20084;-58
2022/01/31 04:48:45;;;;;;;26.52;16.20;;;;;;;;;;5003434;28;20042;-58
2022/01/31 04:51:12;;;;;;;23.48;15.70;;;;;;;;;;5003162;28;20039;-59
2022/01/31 04:53:37;;;;;;;25.73;16.52;;;;;;;;;;5001241;28;20026;-58
2022/01/31 04:56:03;;;;;;;24.38;15.02;;;;;;;;;;5002270;28;20256;-58
2022/01/31 04:58:31;;;;;;;28.83;15.68;;;;;;;;;;5001880;28;20081;-57
2022/01/31 05:00:56;;;;;;;22.13;15.18;;;;;;;;;;5002018;28;20014;-57
2022/01/31 05:03:21;;;;;;;23.48;14.35;;;;;;;;;;5003459;28;20207;-57
2022/01/31 05:05:47;;;;;;;27.77;15.88;;;;;;;;;;5002607;28;20018;-56
2022/01/31 05:08:13;;;;;;;22.83;13.20;;;;;;;;;;5002643;28;20046;-57
2022/01/31 05:10:47;;;;;;;24.70;16.42;;;;;;;;;;5001996;28;20022;-57
2022/01/31 05:13:14;;;;;;;22.08;14.02;;;;;;;;;;5003265;28;20029;-56
2022/01/31 05:15:39;;;;;;;25.00;15.48;;;;;;;;;;5002876;28;20033;-57
2022/01/31 05:18:05;;;;;;;24.42;15.80;;;;;;;;;;5003311;28;20026;-57
2022/01/31 05:20:30;;;;;;;24.30;14.38;;;;;;;;;;5001564;28;20046;-57
2022/01/31 05:22:56;;;;;;;30.20;16.98;;;;;;;;;;5001456;28;20022;-58
2022/01/31 05:25:21;;;;;;;27.90;17.02;;;;;;;;;;5002382;28;20114;-58
2022/01/31 05:27:46;;;;;;;27.38;17.48;;;;;;;;;;5001985;28;20024;-58
2022/01/31 05:30:12;;;;;;;27.70;16.35;;;;;;;;;;5003505;28;20026;-58
2022/01/31 05:32:37;;;;;;;26.73;16.83;;;;;;;;;;5006465;28;20178;-58
2022/01/31 05:35:04;;;;;;;31.30;17.65;;;;;;;;;;5006608;28;20207;-57
2022/01/31 05:37:30;;;;;;;27.02;16.80;;;;;;;;;;5006878;28;20015;-59
2022/01/31 05:39:56;;;;;;;31.00;18.00;;;;;;;;;;5006580;28;20045;-58
2022/01/31 05:42:21;;;;;;;32.00;17.98;;;;;;;;;;5004775;28;20026;-59
2022/01/31 05:44:47;;;;;;;24.30;14.80;;;;;;;;;;5004375;28;20018;-58
2022/01/31 05:47:15;;;;;;;29.23;17.65;;;;;;;;;;5005467;28;20033;-57
2022/01/31 05:49:41;;;;;;;31.90;17.73;;;;;;;;;;5005170;28;20030;-56
2022/01/31 05:52:07;;;;;;;26.48;17.10;;;;;;;;;;5005174;28;20077;-57
2022/01/31 05:54:33;;;;;;;25.00;17.38;;;;;;;;;;5005838;28;20014;-56
2022/01/31 05:56:59;;;;;;;24.20;15.45;;;;;;;;;;5006479;28;20022;-57
2022/01/31 05:59:25;;;;;;;28.90;18.83;;;;;;;;;;5006162;28;20049;-57
2022/01/31 06:01:51;;;;;;;28.45;17.33;;;;;;;;;;5004963;28;20022;-56
2022/01/31 06:04:16;;;;;;;28.30;18.15;;;;;;;;;;5037120;28;20026;-57
2022/01/31 06:06:41;;;;;;;26.27;16.48;;;;;;;;;;5006027;28;20225;-56
2022/01/31 06:09:07;;;;;;;27.55;17.30;;;;;;;;;;5005365;28;20112;-56
2022/01/31 06:11:34;;;;;;;28.05;16.88;;;;;;;;;;5006047;28;20033;-56
2022/01/31 06:14:03;;;;;;;24.40;16.25;;;;;;;;;;5006016;28;20026;-56
2022/01/31 06:16:28;;;;;;;27.33;16.60;;;;;;;;;;5004992;28;20018;-56
2022/01/31 06:18:53;;;;;;;25.98;16.52;;;;;;;;;;5004806;28;20025;-56
2022/01/31 06:21:19;;;;;;;24.33;15.57;;;;;;;;;;5004746;28;20018;-56
2022/01/31 06:23:44;;;;;;;26.70;17.38;;;;;;;;;;5003153;28;20034;-56
2022/01/31 06:26:10;;;;;;;26.25;16.45;;;;;;;;;;5004763;28;20014;-56
2022/01/31 06:28:35;;;;;;;27.20;17.90;;;;;;;;;;5006025;28;20074;-57
2022/01/31 06:31:01;;;;;;;31.05;18.38;;;;;;;;;;5004716;28;20334;-57
2022/01/31 06:33:26;;;;;;;28.85;18.52;;;;;;;;;;5000187;28;20014;-57
2022/01/31 06:35:52;;;;;;;30.23;18.98;;;;;;;;;;5004959;28;20093;-57
2022/01/31 06:38:17;;;;;;;28.95;18.55;;;;;;;;;;5000675;28;20118;-56
2022/01/31 06:40:42;;;;;;;25.63;16.98;;;;;;;;;;5004602;28;20026;-58
2022/01/31 06:43:08;;;;;;;31.13;18.55;;;;;;;;;;5002833;28;20029;-57
2022/01/31 06:45:33;;;;;;;33.20;21.42;;;;;;;;;;5005434;28;20057;-57
2022/01/31 06:47:59;;;;;;;31.15;17.65;;;;;;;;;;5004977;28;20042;-57
2022/01/31 06:50:24;;;;;;;33.28;19.52;;;;;;;;;;5005461;28;20109;-57
2022/01/31 06:52:54;;;;;;;30.40;19.33;;;;;;;;;;5005411;28;20334;-57
2022/01/31 06:55:21;;;;;;;30.88;18.58;;;;;;;;;;5005288;28;20026;-57
2022/01/31 06:57:47;;;;;;;32.40;19.67;;;;;;;;;;5005266;28;20101;-56
2022/01/31 07:00:13;;;;;;;34.00;20.15;;;;;;;;;;4999925;28;20130;-57
2022/01/31 07:02:39;;;;;;;34.20;19.45;;;;;;;;;;5004497;28;20030;-56
2022/01/31 07:05:05;;;;;;;32.33;18.77;;;;;;;;;;5003989;28;20307;-58
2022/01/31 07:07:30;;;;;;;30.50;18.73;;;;;;;;;;5004566;28;20034;-56
2022/01/31 07:09:56;;;;;;;31.40;18.40;;;;;;;;;;5001806;28;20089;-56
2022/01/31 07:12:31;;;;;;;30.08;20.15;;;;;;;;;;5002717;28;20026;-56
2022/01/31 07:14:56;;;;;;;29.42;18.40;;;;;;;;;;5003434;28;20025;-56
2022/01/31 07:17:22;;;;;;;30.77;18.75;;;;;;;;;;5001861;28;20018;-56
2022/01/31 07:19:47;;;;;;;33.60;19.58;;;;;;;;;;5004007;28;20330;-57
2022/01/31 07:22:14;;;;;;;32.78;19.00;;;;;;;;;;5001713;28;20022;-57
2022/01/31 07:27:05;;;;;;;33.25;17.92;;;;;;;;;;5004206;28;20033;-58
2022/01/31 07:29:30;;;;;;;33.17;19.65;;;;;;;;;;5004104;28;20093;-57
2022/01/31 07:31:57;;;;;;;30.67;19.50;;;;;;;;;;5003856;28;20303;-57
2022/01/31 07:34:22;;;;;;;31.83;19.00;;;;;;;;;;5003940;28;20330;-56
2022/01/31 07:36:48;;;;;;;29.60;18.70;;;;;;;;;;5003825;28;20022;-57
2022/01/31 07:39:13;;;;;;;33.05;20.02;;;;;;;;;;5003939;28;20044;-57
2022/01/31 07:41:39;;;;;;;32.40;19.33;;;;;;;;;;5004281;28;20068;-57
2022/01/31 07:44:05;;;;;;;32.28;18.73;;;;;;;;;;5003907;28;20262;-58
2022/01/31 07:46:30;;;;;;;36.05;20.27;;;;;;;;;;5000882;28;20018;-56
2022/01/31 07:48:56;;;;;;;37.55;20.65;;;;;;;;;;5000979;28;20274;-56
2022/01/31 07:51:21;;;;;;;37.22;19.38;;;;;;;;;;5003939;28;20335;-58
2022/01/31 07:53:47;;;;;;;33.28;19.67;;;;;;;;;;5000331;28;20254;-56
2022/01/31 07:56:15;;;;;;;35.58;20.90;;;;;;;;;;5002664;28;20307;-56
2022/01/31 07:58:40;;;;;;;34.65;19.85;;;;;;;;;;5002949;28;20018;-56
2022/01/31 08:01:06;;;;;;;36.20;19.88;;;;;;;;;;5002766;28;20052;-56
2022/01/31 08:03:31;;;;;;;34.90;20.75;;;;;;;;;;5003271;28;20103;-57
2022/01/31 08:05:57;;;;;;;37.60;20.15;;;;;;;;;;5002935;28;20125;-57
2022/01/31 08:08:24;;;;;;;35.15;18.83;;;;;;;;;;5002719;28;20018;-57
2022/01/31 08:10:49;;;;;;;36.42;21.05;;;;;;;;;;5003146;28;20022;-56
2022/01/31 08:13:15;;;;;;;36.58;20.88;;;;;;;;;;5000349;28;20030;-56
2022/01/31 08:15:59;;;;;;;37.67;20.60;;;;;;;;;;4998834;28;20014;-61
2022/01/31 08:18:24;;;;;;;40.80;21.55;;;;;;;;;;4999848;28;20290;-57
2022/01/31 08:20:50;;;;;;;41.45;21.42;;;;;;;;;;5002839;28;20022;-57
2022/01/31 08:23:15;;;;;;;36.90;21.23;;;;;;;;;;5000119;28;20054;-57
2022/01/31 08:25:40;;;;;;;32.53;20.27;;;;;;;;;;4999236;28;20027;-57
2022/01/31 08:28:10;;;;;;;39.05;21.13;;;;;;;;;;5002097;28;20326;-57
2022/01/31 08:31:14;;;;;;;37.78;21.63;;;;;;;;;;4999886;28;20030;-57
2022/01/31 08:35:59;;;;;;;46.55;22.38;;;;;;;;;;5003400;28;20026;-59
2022/01/31 08:38:56;;;;;;;41.47;23.38;;;;;;;-1.19;86.87;97367.91;5079197;28;20648;-57
2022/01/31 08:41:21;;;;;;;41.08;22.77;;;;;;;-1.14;87.21;97350.91;5050026;28;20036;-57
2022/01/31 08:43:48;;;;;;;41.45;21.52;;;;;;;-1.41;87.84;97323.31;5060443;28;20036;-56
2022/01/31 08:46:14;;;;;;;43.47;22.73;;;;;;;-1.14;87.57;97339.06;5059579;28;20033;-57
2022/01/31 08:48:40;;;;;;;43.05;22.58;;;;;;;-1.08;87.07;97340.69;5051974;28;20039;-57
2022/01/31 08:51:09;;;;;;;39.55;22.90;;;;;;;-1.09;86.76;97339.00;5056991;28;20032;-56
2022/01/31 08:53:35;;;;;;;43.40;22.58;;;;;;;-0.90;86.17;97331.97;5057817;28;20036;-56
2022/01/31 08:56:04;;;;;;;41.22;23.02;;;;;;;-1.04;86.84;97342.34;5056572;28;20048;-56
2022/01/31 08:58:30;;;;;;;44.17;24.48;;;;;;;-1.11;86.44;97346.66;5057085;28;20090;-57
2022/01/31 09:01:00;;;;;;;45.33;22.90;;;;;;;-1.35;87.34;97339.31;5058591;28;20029;-56
2022/01/31 09:05:59;;;;;;;47.08;23.42;;;;;;;-1.31;87.35;97315.56;5062716;28;20033;-58
2022/01/31 09:08:25;;;;;;;45.35;24.10;;;;;;;-1.32;88.86;97342.66;5067748;28;20033;-57
2022/01/31 09:10:51;;;;;;;51.75;24.90;;;;;;;-1.12;87.41;97344.97;5059863;28;20036;-57
2022/01/31 09:13:18;;;;;;;47.95;22.15;;;;;;;-1.31;88.18;97339.28;4998805;28;20078;-57
2022/01/31 09:15:44;;;;;;;51.17;24.52;;;;;;;-1.16;88.62;97343.31;4993709;28;20061;-57
2022/01/31 09:18:09;;;;;;;48.35;24.20;;;;;;;-1.02;87.35;97345.69;4994944;28;20037;-56
2022/01/31 09:20:36;;;;;;;44.70;21.33;;;;;;;-1.24;87.90;97361.19;4994101;28;20039;-56
2022/01/31 09:23:02;;;;;;;43.75;22.00;;;;;;;-1.24;88.21;97330.72;4995414;28;20040;-56
2022/01/31 09:25:29;;;;;;;50.45;24.63;;;;;;;-1.11;88.98;97340.72;4996096;28;20041;-58
2022/01/31 09:27:54;;;;;;;51.47;25.52;;;;;;;-0.98;87.81;97341.38;5010290;28;20260;-56
2022/01/31 09:30:22;;;;;;;52.35;24.23;;;;;;;-1.11;87.70;97344.09;4993911;28;20030;-57
2022/01/31 09:32:48;;;;;;;52.80;26.20;;;;;;;-0.88;87.78;97338.72;4994822;28;20204;-57
2022/01/31 09:35:14;;;;;;;52.03;24.75;;;;;;;-0.97;88.17;97338.84;4994981;28;20035;-57
2022/01/31 09:37:40;;;;;;;51.75;22.17;;;;;;;-1.19;87.93;97334.91;4993159;28;20047;-56
2022/01/31 09:40:07;;;;;;;47.78;24.75;;;;;;;-1.07;88.96;97337.28;4993775;28;20082;-56
2022/01/31 09:42:59;;;;;;;50.10;24.98;;;;;;;-1.31;89.37;97334.19;4993571;28;20074;-57
2022/01/31 09:45:38;;;;;;;;;;;;;;;-1.25;89.42;97340.91;5008684;28;20041;-56
2022/01/31 09:50:30;;;;;;;51.97;25.23;;;;;;;-1.30;89.98;97323.16;4980286;28;20023;-56
2022/01/31 09:52:56;;;;;;;51.20;23.55;;;;;;;-1.63;91.60;97345.53;4981613;28;20311;-56
2022/01/31 09:55:25;;;;;;;61.50;27.92;;;;;;;-1.34;90.91;97331.72;4982121;28;20023;-56
2022/01/31 09:57:50;;;;;;;58.45;26.85;;;;;;;-1.28;90.86;97323.19;4979525;28;20073;-55
2022/01/31 10:00:16;;;;;;;54.67;25.65;;;;;;;-1.16;90.41;97333.16;4978006;28;20251;-55
2022/01/31 10:03:08;;;;;;;60.63;27.25;;;;;;;-1.17;89.74;97335.72;4979197;28;20031;-56
2022/01/31 10:05:34;;;;;;;;;;;;;;;-1.27;89.70;97332.44;4980995;28;20093;-57
2022/01/31 10:08:10;;;;;;;58.33;26.80;;;;;;;-1.26;90.18;97318.91;4991811;28;20099;-56
2022/01/31 10:10:42;;;;;;;51.35;23.58;;;;;;;-1.37;91.15;97325.81;4979617;28;20244;-56
2022/01/31 10:16:30;;;;;;;60.67;28.58;;;;;;;-1.23;90.47;97317.19;4981460;28;20038;-57
2022/01/31 10:19:08;;;;;;;60.63;27.88;;;;;;;-1.13;90.22;97328.03;4981803;28;20035;-57
2022/01/31 10:21:57;;;;;;;57.63;28.02;;;;;;;-0.95;89.41;97331.22;4979203;28;20045;-56
2022/01/31 10:24:24;;;;;;;56.10;27.38;;;;;;;-0.88;88.56;97320.94;4983433;28;20041;-57
2022/01/31 10:26:50;;;;;;;56.97;27.58;;;;;;;-0.83;89.01;97320.84;4980694;28;20391;-56
2022/01/31 10:29:18;;;;;;;49.05;23.88;;;;;;;-0.94;87.88;97318.47;4984902;28;20030;-56
2022/01/31 10:32:17;;;;;;;50.30;23.58;;;;;;;-1.00;88.49;97315.19;4985877;28;20338;-57
2022/01/31 10:34:50;;;;;;;52.60;27.33;;;;;;;-1.17;88.39;97255.28;4975486;28;20102;-56
2022/01/31 10:37:18;;;;;;;53.47;27.15;;;;;;;-0.65;88.60;97317.22;4985626;28;20065;-57
2022/01/31 10:45:29;;;;;;;45.92;25.02;;;;;;;-1.33;88.29;97253.84;4983991;28;20039;-57
2022/01/31 10:53:51;;;;;;;44.38;23.45;;;;;;;-1.18;88.87;97271.41;4980993;28;20357;-56
2022/01/31 10:56:17;;;;;;;50.90;27.55;;;;;;;-0.86;88.92;97298.03;4982172;28;20030;-57
2022/01/31 10:59:10;;;;;;;48.55;25.90;;;;;;;-0.58;87.28;97305.25;4977352;28;20058;-58
2022/01/31 11:01:38;;;;;;;49.20;26.38;;;;;;;-0.67;87.86;97302.84;4979850;28;20051;-56
2022/01/31 11:04:10;;;;;;;51.92;27.92;;;;;;;-0.63;87.21;97312.94;4977336;28;20030;-56
2022/01/31 11:06:39;;;;;;;49.67;25.80;;;;;;;-0.94;89.58;97299.84;4998686;28;20042;-56
2022/01/31 11:09:14;;;;;;;54.53;27.50;;;;;;;-0.56;89.09;97304.34;4979996;28;20069;-57
2022/01/31 11:11:44;;;;;;;50.83;26.20;;;;;;;-1.17;88.14;97240.06;4979325;28;20043;-57
2022/01/31 11:14:11;;;;;;;54.10;26.67;;;;;;;-0.93;88.59;97301.53;4980630;28;20271;-56
2022/01/31 11:16:40;;;;;;;53.97;28.10;;;;;;;-1.37;89.70;97222.56;4982409;28;20030;-56
2022/01/31 11:19:09;;;;;;;52.05;25.63;;;;;;;-0.97;90.03;97303.28;4982666;28;20066;-56
2022/01/31 11:21:43;;;;;;;51.58;27.58;;;;;;;-0.83;89.45;97294.63;4962571;28;20344;-58
2022/01/31 11:24:18;;;;;;;58.85;27.58;;;;;;;-0.95;89.17;97280.41;4975161;28;20258;-59
2022/01/31 11:26:54;;;;;;;46.97;25.95;;;;;;;-0.68;88.24;97319.81;5004018;28;20289;-58
2022/01/31 11:29:19;;;;;;;51.42;24.90;;;;;;;-0.71;88.22;97297.00;5003454;28;20034;-58
2022/01/31 11:31:46;;;;;;;50.33;26.77;;;;;;;-0.73;88.78;97303.78;5003427;28;20046;-58
2022/01/31 11:34:13;;;;;;;46.17;23.40;;;;;;;-0.93;89.33;97299.81;5003290;28;20022;-58
2022/01/31 11:36:40;;;;;;;48.95;25.63;;;;;;;-0.73;89.04;97288.53;5000869;28;20026;-58
2022/01/31 11:39:12;;;;;;;49.38;26.50;;;;;;;-0.85;88.46;97237.94;5002154;28;20030;-57
2022/01/31 11:41:47;;;;;;;47.13;25.80;;;;;;;-0.91;87.94;97237.16;5002714;28;20248;-57
2022/01/31 11:44:29;;;;;;;48.75;25.27;;;;;;;-0.49;87.99;97294.09;5002389;28;20030;-57
2022/01/31 11:46:56;;;;;;;44.85;25.52;;;;;;;-0.56;88.33;97294.19;4986190;28;20018;-57
2022/01/31 11:49:22;;;;;;;44.50;25.05;;;;;;;-0.55;87.85;97293.31;5003496;28;20101;-58
2022/01/31 11:52:02;;;;;;;41.75;24.77;;;;;;;-0.93;87.84;97232.94;5003263;28;20026;-57
2022/01/31 11:54:28;;;;;;;50.70;25.92;;;;;;;-0.46;88.44;97294.03;5002975;28;20034;-57
2022/01/31 11:56:54;;;;;;;49.17;25.20;;;;;;;-0.42;88.22;97303.31;5002453;28;20262;-57
2022/01/31 11:59:22;;;;;;;43.55;25.40;;;;;;;-0.29;87.51;97316.66;5002307;28;20034;-58
2022/01/31 12:01:51;;;;;;;44.45;25.48;;;;;;;-0.60;87.55;97244.28;5003443;28;20097;-58
2022/01/31 12:04:21;;;;;;;45.60;23.70;;;;;;;-0.98;88.35;97245.72;5003519;28;20058;-57
2022/01/31 12:06:47;;;;;;;44.17;25.30;;;;;;;-0.52;87.93;97335.66;5002261;28;20026;-57
2022/01/31 12:09:21;;;;;;;44.58;24.35;;;;;;;-0.79;88.24;97251.34;5003599;28;20045;-57
2022/01/31 12:12:07;;;;;;;48.85;26.45;;;;;;;-0.64;87.84;97244.34;5001921;28;20057;-57
2022/01/31 12:15:05;;;;;;;44.67;25.70;;;;;;;-0.68;88.00;97250.34;5000850;28;20093;-58
2022/01/31 12:18:00;;;;;;;;;;;;;;;-0.70;89.15;97311.34;5002611;28;20038;-58
2022/01/31 12:23:37;;;;;;;45.20;24.45;;;;;;;-0.48;88.31;97298.34;5003422;28;20054;-58
2022/01/31 12:26:31;;;;;;;45.80;24.48;;;;;;;-0.35;88.72;97309.97;5002250;28;20034;-57
2022/01/31 12:29:07;;;;;;;48.70;26.20;;;;;;;-0.45;88.38;97319.44;5001987;28;20042;-58
2022/01/31 12:31:36;;;;;;;49.17;26.13;;;;;;;-0.21;89.09;97299.56;5003197;28;20223;-58
2022/01/31 12:34:03;;;;;;;45.20;24.90;;;;;;;-0.07;88.63;97299.31;5003088;28;20092;-59
2022/01/31 12:36:35;;;;;;;47.40;25.58;;;;;;;-0.42;88.14;97300.75;5001864;28;20028;-60
2022/01/31 12:39:23;;;;;;;42.60;25.08;;;;;;;-0.67;88.34;97257.97;5003024;28;20255;-59
2022/01/31 12:41:49;;;;;;;45.35;24.90;;;;;;;-0.36;88.08;97291.34;5001125;28;20030;-57
2022/01/31 12:44:33;;;;;;;43.58;23.92;;;;;;;-0.43;88.44;97297.41;4995686;28;20030;-57
2022/01/31 12:47:19;;;;;;;43.38;24.05;;;;;;;-0.30;87.67;97292.94;5001205;28;20053;-57
2022/01/31 12:50:05;;;;;;;44.55;23.52;;;;;;;-0.41;87.72;97294.81;5000832;28;20094;-57
2022/01/31 12:52:36;;;;;;;39.38;22.23;;;;;;;-0.48;88.29;97294.06;4999888;28;20219;-57
2022/01/31 12:55:09;;;;;;;42.75;22.35;;;;;;;-0.38;88.84;97287.13;5001375;28;20224;-58
2022/01/31 12:57:46;;;;;;;43.97;23.75;;;;;;;-1.07;89.84;97234.00;4999400;28;20026;-58
2022/01/31 13:00:12;;;;;;;42.10;23.63;;;;;;;-0.40;89.05;97287.16;5001329;28;20022;-57
2022/01/31 13:02:50;;;;;;;46.90;23.88;;;;;;;-0.48;88.23;97290.72;5000416;28;20054;-57
2022/01/31 13:05:31;;;;;;;46.47;25.15;;;;;;;-0.23;88.28;97294.50;4999172;28;20035;-58
2022/01/31 13:07:56;;;;;;;43.95;25.48;;;;;;;-0.24;87.93;97279.28;5000837;28;20118;-58
2022/01/31 13:10:22;;;;;;;44.90;25.88;;;;;;;-0.18;87.58;97279.16;5001476;28;20022;-58
2022/01/31 13:12:58;;;;;;;49.80;26.17;;;;;;;-0.29;87.45;97278.50;5001261;28;20037;-57
2022/01/31 13:15:24;;;;;;;52.00;27.90;;;;;;;-0.34;89.21;97276.06;5003019;28;20042;-57
2022/01/31 13:17:50;;;;;;;45.47;24.42;;;;;;;-0.52;88.44;97283.09;5002714;28;20380;-58
2022/01/31 13:20:16;;;;;;;47.65;23.83;;;;;;;-0.55;89.83;97279.78;5001548;28;20437;-57
2022/01/31 13:22:42;;;;;;;53.03;26.00;;;;;;;-0.58;90.09;97278.13;5000569;28;20058;-57
2022/01/31 13:25:15;;;;;;;49.13;26.95;;;;;;;-0.63;89.40;97276.53;5003296;28;20042;-57
2022/01/31 13:27:43;;;;;;;45.60;23.95;;;;;;;-0.98;89.20;97217.78;5004106;28;20089;-58
2022/01/31 13:30:12;;;;;;;43.67;24.10;;;;;;;-0.95;89.94;97219.44;5006160;28;20093;-57
2022/01/31 13:32:39;;;;;;;43.95;25.05;;;;;;;-0.81;89.88;97242.06;5006091;28;20034;-58
2022/01/31 13:35:08;;;;;;;45.28;27.17;;;;;;;-0.55;90.18;97282.31;5004972;28;20050;-58
2022/01/31 13:38:06;;;;;;;53.35;28.65;;;;;;;-0.77;89.60;97234.41;5006018;28;20045;-58